This is the latest recevied weather packets stored in our database for station/object TA2EE-10. If no packets are shown the sender has not sent any weather packets the latest 10 day(s).
| Time | Temp. | Humidity | Pressure | Rain* | Wind** | Luminosity | Snow |
|---|---|---|---|---|---|---|---|
| 1777757737 | 22.78° C | 30% | 910 hPa | - | - | 0 W/m² | - |
| 1777755615 | 22.22° C | 32% | 910 hPa | - | - | 0 W/m² | - |
| 1777753493 | 22.22° C | 32% | 910 hPa | - | - | 0 W/m² | - |
| 1777751370 | 21.67° C | 33% | 911 hPa | - | - | 0 W/m² | - |
| 1777749248 | 22.22° C | 32% | 910 hPa | - | - | 0 W/m² | - |
| 1777747126 | 22.22° C | 33% | 911 hPa | - | - | 0 W/m² | - |
| 1777745004 | 20.56° C | 37% | 911 hPa | - | - | 0 W/m² | - |
| 1777742882 | 20.56° C | 36% | 910 hPa | - | - | 0 W/m² | - |
| 1777740760 | 20° C | 36% | 910 hPa | - | - | 0 W/m² | - |
| 1777738638 | 20° C | 35% | 910 hPa | - | - | 0 W/m² | - |
| 1777736515 | 19.44° C | 38% | 910 hPa | - | - | 0 W/m² | - |
| 1777734394 | 22.22° C | 32% | 910 hPa | - | - | 0 W/m² | - |
| 1777734326 | 22.78° C | 31% | 910 hPa | - | - | 0 W/m² | - |
| 1777732204 | 22.22° C | 32% | 910 hPa | - | - | 0 W/m² | - |
| 1777730082 | 19.44° C | 37% | 911 hPa | - | - | 0 W/m² | - |
| 1777727960 | 20° C | 36% | 911 hPa | - | - | 0 W/m² | - |
| 1777725838 | 21.11° C | 31% | 910 hPa | - | - | 0 W/m² | - |
| 1777723716 | 20° C | 34% | 910 hPa | - | - | 0 W/m² | - |
| 1777721593 | 20° C | 34% | 911 hPa | - | - | 0 W/m² | - |
| 1777719471 | 21.11° C | 31% | 911 hPa | - | - | 0 W/m² | - |
| 1777717349 | 21.67° C | 30% | 911 hPa | - | - | 0 W/m² | - |
| 1777715227 | 24.44° C | 27% | 912 hPa | - | - | 0 W/m² | - |
| 1777713105 | 23.33° C | 28% | 912 hPa | - | - | 0 W/m² | - |
| 1777710983 | 18.33° C | 35% | 912 hPa | - | - | 0 W/m² | - |
| 1777708860 | 17.22° C | 37% | 912 hPa | - | - | 0 W/m² | - |
* Rain since midnight (hover to see other rain measurements)
** Current wind speed in m/s (hover to see current wind gust speed)